WAPP

Details ICAO WAPP (AMQ)
Name Ambon Pattimura
Region Indonesia
Timezone Asia/Jayapura (UTC+9.0)
Plans Departing 68
Arriving 57
Stats Elevation 33 ft / 10 m (AMSL)
Location -3.710262° 128.089135°
Runways 1
Magnetic Variation 1.130° E
Sunrise 2018-06-25 21:34:22 UTC / 2018-06-26 06:34:22 Local
Sunset 2018-06-26 09:28:48 UTC / 2018-06-26 18:28:48 Local
Advertisement - Login to hide

Runways

ID Width Length Bearing (true) Bearing (mag) Surface Threshold Offset Overrun Length
04 148 ft / 45 m 8,235 ft / 2,510 m 44.92° 43.79° Asphalt 0 ft / 0 m 200 ft / 61 m
22 148 ft / 45 m 8,235 ft / 2,510 m 224.92° 223.79° Asphalt 0 ft / 0 m 200 ft / 61 m

Map

Weather


0- 5 10 15 20 25 30 35+ Temperature / ° C

Clouds and Precipitation
Forecast for 2018-06-25 18:00 UTC. Updated 2 hours ago

Ground ~20,000 ft ~40,000 ft Winds

METAR

WAPP 251700Z 14004KT 100V180 9999 SCT018 26/23 Q1010 NOSIG

TAF

Not found

Frequencies

Recorded 125.40 MHz ATIS
Tower 122.20 MHz TWR
Recorded 127.40 MHz ATIS
Approach 121.00 MHz AMBON APP
Warning: Do not use this data for real-world aviation or navigation. No guarantee of current accuracy is given.